Revelstoke Airport
CYRV : now visible

Airfield :











YOU CAN JOIN US ON...

 
LOGIN :

Register | Disclaimer

   EN    FR    IT 

 









Legend :    VFR   Marginal VFR   IFR   Intensive IFR   Very Intensive IFR
Visi :
Ceiling :
>= 8 km
>= 3000ft
5 to 8 km
1000 to 3000 ft
1500m to 5 km
500 to 1000 ft
800 to 1500m
200 to 500 ft
< 800m
< 200 ft
Symbols :   Thunderstorms  Fog  Heavy snow  Heavy precipitations  Wind > 20 kt






- Airport Elevation : 1459 ft
- IATA code : YRV


CYRV - Revelstoke

CURRENT METAR :
  • 291515Z AUTO 14011KT 100V160 9SM BKN013 BKN140 02/01 A3011 RMK PRESFR SLP216

EXPIRED METARs :
  • 291455Z AUTO 13006KT 080V180 9SM SCT010 BKN140 02/01 A3013 RMK SLP222
  • 291400Z AUTO 14014G19KT 110V170 9SM FEW007 BKN010 02/01 A3013 RMK SLP223
  • 291300Z AUTO 13009KT 100V160 9SM OVC006 02/01 A3016 RMK SLP233

TAF N/A



MET'MAP, your aeronautical weather chart ! - Copyright ORBIFLY December 2007 - Disclaimer

ORBIFLY MET'MAP TEAM :

Programming & Development : Alexandra Zaïnal
Concept & original design : Baudouin d'Aumeries
Assistance for programming : Marc-Olivier Méhu
Technical & hardware support : Manuel Goepfert

Contact : metmap@orbifly.com




SOURCES & CREDITS :

   NOAA       Earth
Advisory